Terminal Aerodrome Forecast
Issued by NWS Cleveland, OH

Home | Current Version | Previous Version | Graphics & Text | Print | Product List | Glossary On
Versions: 1 2 3 4 5 6 7 8 9 10 11 12 13 14 15 16
622
FTUS41 KCLE 241136
TAFERI
TAF
KERI 241136Z 2412/2512 14010KT P6SM OVC050
      TEMPO 2412/2416 -SHRA
     FM241600 10012G20KT P6SM BKN070
     FM250000 11012G20KT P6SM -SHRA OVC035
     FM250600 13012G20KT 4SM -SHRA OVC025=

USA.gov is the U.S. government's official web portal to all federal, state and local government web resources and services.